Terminal Aerodrome Forecast
Issued by NWS Rapid City, SD

Home | Current Version | Previous Version | Text Only | Print | Product List | Glossary Off
Versions: 1 2 3 4 5 6 7 8 9 10 11 12 13 14 15 16 17

000
FTUS43 KUNR 281700
TAFRAP
TAF
KRAP 281720Z 2818/2918 33029G39KT P6SM BKN150
     FM290200 34020G30KT P6SM SCT250
     FM290900 34012KT P6SM SKC=

USA.gov is the U.S. government's official web portal to all federal, state and local government web resources and services.